Time;durP1;ratioP1;P1;durP2;ratioP2;P2;SDS_P1;SDS_P2;PMS_P1;PMS_P2;Temp;Humidity;BMP_temperature;BMP_pressure;BME280_temperature;BME280_humidity;BME280_pressure;Samples;Min_cycle;Max_cycle;Signal;HPM_P1;HPM_P2
2022/06/29 00:02:24;;;;;;;4.90;4.40;;;18.20;99.90;;;;;;4999734;28;20049;-38
2022/06/29 00:04:50;;;;;;;6.50;4.50;;;18.10;99.90;;;;;;5001011;28;20095;-39
2022/06/29 00:07:15;;;;;;;5.13;4.63;;;18.10;99.90;;;;;;5013623;28;20046;-37
2022/06/29 00:09:41;;;;;;;5.53;4.22;;;18.10;99.90;;;;;;5002101;28;20498;-39
2022/06/29 00:12:08;;;;;;;4.90;4.40;;;18.00;99.90;;;;;;4999746;28;20033;-38
2022/06/29 00:14:41;;;;;;;5.72;4.82;;;18.00;99.90;;;;;;5001585;28;20026;-39
2022/06/29 00:17:11;;;;;;;4.93;4.35;;;17.90;99.90;;;;;;5002307;28;20095;-39
2022/06/29 00:19:38;;;;;;;6.40;5.32;;;17.90;99.90;;;;;;5001695;28;20026;-37
2022/06/29 00:22:04;;;;;;;6.22;4.68;;;17.90;99.90;;;;;;5002114;28;20037;-37
2022/06/29 00:24:30;;;;;;;5.43;4.93;;;17.90;99.90;;;;;;5001975;28;20029;-39
2022/06/29 00:26:56;;;;;;;6.40;4.70;;;17.90;99.90;;;;;;5003247;28;20030;-37
2022/06/29 00:29:22;;;;;;;7.70;5.47;;;17.90;99.90;;;;;;5001028;28;20032;-39
2022/06/29 00:31:47;;;;;;;5.95;5.32;;;17.90;99.90;;;;;;4999836;28;20029;-39
2022/06/29 00:34:13;;;;;;;5.65;4.75;;;17.90;99.90;;;;;;5000836;28;20038;-38
2022/06/29 00:36:39;;;;;;;5.13;4.15;;;17.90;99.90;;;;;;4999557;28;20030;-35
2022/06/29 00:39:04;;;;;;;6.28;4.75;;;17.90;99.90;;;;;;5002026;28;20093;-37
2022/06/29 00:41:30;;;;;;;4.93;4.20;;;17.90;99.90;;;;;;5007149;28;20382;-37
2022/06/29 00:43:55;;;;;;;4.70;4.25;;;17.70;99.90;;;;;;5008367;28;20080;-39
2022/06/29 00:46:21;;;;;;;5.05;4.53;;;17.80;99.90;;;;;;5009308;28;20030;-37
2022/06/29 00:48:46;;;;;;;4.47;4.07;;;17.80;99.90;;;;;;5002711;28;20038;-39
2022/06/29 00:51:17;;;;;;;6.10;4.28;;;17.90;99.90;;;;;;5005972;28;20484;-39
2022/06/29 00:53:45;;;;;;;5.25;4.03;;;17.90;99.90;;;;;;5007583;28;20029;-36
2022/06/29 00:56:13;;;;;;;4.60;4.18;;;17.90;99.90;;;;;;5009521;28;20026;-37
2022/06/29 00:58:40;;;;;;;5.13;4.60;;;18.00;99.90;;;;;;5004988;28;20033;-39
2022/06/29 01:01:06;;;;;;;5.20;4.07;;;17.90;99.90;;;;;;5005715;28;22071;-36
2022/06/29 01:03:32;;;;;;;8.70;4.78;;;18.00;99.90;;;;;;5006896;28;20037;-36
2022/06/29 01:06:01;;;;;;;4.93;4.47;;;18.00;99.90;;;;;;5005311;28;20029;-36
2022/06/29 01:08:27;;;;;;;6.75;4.93;;;17.90;99.90;;;;;;5018267;28;20050;-38
2022/06/29 01:10:52;;;;;;;6.93;4.30;;;17.90;99.90;;;;;;5007341;28;20030;-37
2022/06/29 01:13:18;;;;;;;6.60;4.50;;;18.00;99.90;;;;;;5004735;28;20049;-37
2022/06/29 01:15:44;;;;;;;4.90;4.35;;;18.00;99.90;;;;;;5009335;28;20026;-37
2022/06/29 01:18:09;;;;;;;5.20;4.70;;;17.90;99.90;;;;;;5007540;28;20026;-38
2022/06/29 01:20:35;;;;;;;7.07;4.72;;;17.90;99.90;;;;;;5008191;28;20030;-39
2022/06/29 01:23:01;;;;;;;5.97;4.75;;;17.80;99.90;;;;;;5007036;28;20033;-36
2022/06/29 01:25:27;;;;;;;5.13;4.72;;;17.60;99.90;;;;;;5002042;28;20117;-38
2022/06/29 01:27:52;;;;;;;4.88;4.38;;;17.60;99.90;;;;;;5005239;28;20034;-38
2022/06/29 01:30:18;;;;;;;5.57;4.97;;;17.70;99.90;;;;;;5004643;28;20558;-38
2022/06/29 01:32:44;;;;;;;5.95;5.07;;;17.80;99.90;;;;;;5002872;28;20038;-39
2022/06/29 01:35:12;;;;;;;5.78;5.20;;;17.80;99.90;;;;;;5007237;28;20192;-35
2022/06/29 01:37:39;;;;;;;6.50;4.75;;;17.90;99.90;;;;;;5006449;28;20088;-39
2022/06/29 01:40:06;;;;;;;5.30;4.80;;;17.90;99.90;;;;;;5005503;28;20045;-36
2022/06/29 01:42:32;;;;;;;5.53;4.97;;;17.90;99.90;;;;;;5001660;28;20033;-38
2022/06/29 01:44:58;;;;;;;5.85;4.75;;;17.90;99.90;;;;;;5006984;28;20026;-38
2022/06/29 01:47:23;;;;;;;5.53;4.95;;;17.90;99.90;;;;;;4875289;28;20780;-39
2022/06/29 01:49:50;;;;;;;6.00;5.25;;;17.80;99.90;;;;;;5003989;28;20029;-39
2022/06/29 01:52:15;;;;;;;6.05;5.00;;;17.80;99.90;;;;;;5003659;28;20510;-39
2022/06/29 01:54:41;;;;;;;5.18;4.65;;;17.90;99.90;;;;;;5009326;28;20034;-39
2022/06/29 01:57:06;;;;;;;6.10;5.22;;;17.90;99.90;;;;;;5003923;28;20737;-39
2022/06/29 01:59:32;;;;;;;6.70;5.13;;;17.90;99.90;;;;;;5002946;28;20028;-37
2022/06/29 02:01:58;;;;;;;7.05;5.45;;;18.00;99.90;;;;;;5004343;28;20092;-38
2022/06/29 02:04:23;;;;;;;5.43;4.93;;;17.90;99.90;;;;;;5006156;28;20387;-38
2022/06/29 02:06:49;;;;;;;5.80;4.47;;;17.90;99.90;;;;;;5006982;28;20137;-39
2022/06/29 02:09:14;;;;;;;5.88;4.93;;;17.90;99.90;;;;;;5000231;28;20033;-39
2022/06/29 02:11:40;;;;;;;5.80;5.20;;;17.90;99.90;;;;;;5005430;28;20033;-38
2022/06/29 02:14:06;;;;;;;6.93;4.97;;;17.90;99.90;;;;;;5005601;28;20038;-39
2022/06/29 02:16:32;;;;;;;4.97;4.40;;;17.80;99.90;;;;;;5004737;28;20030;-37
2022/06/29 02:18:58;;;;;;;5.55;5.05;;;17.90;99.90;;;;;;5006951;28;20088;-37
2022/06/29 02:21:24;;;;;;;5.97;4.65;;;17.90;99.90;;;;;;5003282;28;20022;-37
2022/06/29 02:23:49;;;;;;;5.93;5.20;;;18.00;99.90;;;;;;5005780;28;20030;-39
2022/06/29 02:26:15;;;;;;;5.88;5.28;;;18.00;99.90;;;;;;5004304;28;20438;-37
2022/06/29 02:28:41;;;;;;;5.78;5.18;;;18.00;99.90;;;;;;4998151;28;20025;-38
2022/06/29 02:36:35;;;;;;;5.47;4.97;;;18.10;99.90;;;;;;4999936;28;20190;-39
2022/06/29 02:39:01;;;;;;;6.47;4.97;;;18.00;99.90;;;;;;5004391;28;20112;-37
2022/06/29 02:41:27;;;;;;;6.15;4.45;;;18.00;99.90;;;;;;5004223;28;20117;-38
2022/06/29 02:43:52;;;;;;;6.15;5.25;;;18.00;99.90;;;;;;5004412;28;20030;-37
2022/06/29 02:46:18;;;;;;;7.53;5.18;;;17.90;99.90;;;;;;5003272;28;20026;-39
2022/06/29 02:48:44;;;;;;;7.97;5.35;;;18.00;99.90;;;;;;5000524;28;20034;-39
2022/06/29 02:51:09;;;;;;;6.28;5.18;;;18.00;99.90;;;;;;5004394;28;20028;-39
2022/06/29 02:53:35;;;;;;;5.93;4.95;;;18.00;99.90;;;;;;5005044;28;20045;-35
2022/06/29 02:56:01;;;;;;;5.28;4.50;;;17.90;99.90;;;;;;5003578;28;20541;-38
2022/06/29 02:58:26;;;;;;;5.20;4.70;;;17.80;99.90;;;;;;5005858;28;20029;-36
2022/06/29 03:00:52;;;;;;;5.35;4.70;;;17.80;99.90;;;;;;5002190;28;20026;-39
2022/06/29 03:03:18;;;;;;;5.15;4.63;;;17.90;99.90;;;;;;5001548;28;20652;-38
2022/06/29 03:05:43;;;;;;;8.07;5.38;;;17.90;99.90;;;;;;5006425;28;20714;-37
2022/06/29 03:08:09;;;;;;;6.53;4.85;;;18.00;99.90;;;;;;5007334;28;20049;-39
2022/06/29 03:10:35;;;;;;;6.43;5.72;;;18.00;99.90;;;;;;5005407;28;20109;-38
2022/06/29 03:13:00;;;;;;;7.90;4.95;;;18.00;99.90;;;;;;5001410;28;20391;-39
2022/06/29 03:15:26;;;;;;;7.38;6.00;;;18.00;99.90;;;;;;5000662;28;20483;-39
2022/06/29 03:17:53;;;;;;;6.60;5.72;;;17.90;99.90;;;;;;5006595;28;20494;-36
2022/06/29 03:20:19;;;;;;;8.55;6.13;;;17.80;99.90;;;;;;5001690;28;20030;-36
2022/06/29 03:22:46;;;;;;;7.93;6.00;;;17.80;99.90;;;;;;5006620;28;20037;-38
2022/06/29 03:25:12;;;;;;;9.45;6.57;;;17.80;99.90;;;;;;5004402;28;20045;-39
2022/06/29 03:27:38;;;;;;;7.18;6.28;;;17.90;99.90;;;;;;5006766;28;20030;-38
2022/06/29 03:30:05;;;;;;;10.75;7.35;;;17.90;99.90;;;;;;5010279;28;20036;-37
2022/06/29 03:32:30;;;;;;;10.35;7.20;;;17.90;99.90;;;;;;5005262;28;20088;-38
2022/06/29 03:34:56;;;;;;;8.77;7.13;;;17.90;99.90;;;;;;5008590;28;20022;-39
2022/06/29 03:37:21;;;;;;;7.82;6.28;;;17.90;99.90;;;;;;5008057;28;20449;-36
2022/06/29 03:39:48;;;;;;;8.82;6.82;;;18.00;99.90;;;;;;5005646;28;20060;-39
2022/06/29 03:42:14;;;;;;;7.28;6.50;;;17.90;99.90;;;;;;5008402;28;20067;-38
2022/06/29 03:44:39;;;;;;;9.98;6.22;;;18.00;99.90;;;;;;5008296;28;20064;-39
2022/06/29 03:47:07;;;;;;;8.38;6.65;;;18.10;99.90;;;;;;5005434;28;20065;-39
2022/06/29 03:49:36;;;;;;;12.05;6.95;;;18.10;99.90;;;;;;5005594;28;20040;-39
2022/06/29 03:52:03;;;;;;;9.40;6.55;;;18.00;99.90;;;;;;5010567;28;20121;-38
2022/06/29 03:54:28;;;;;;;7.05;5.93;;;18.00;99.90;;;;;;5004623;28;20025;-37
2022/06/29 03:56:55;;;;;;;6.97;6.10;;;18.10;99.90;;;;;;5009334;28;20038;-36
2022/06/29 03:59:20;;;;;;;8.30;6.32;;;18.10;99.90;;;;;;5008421;28;20034;-38
2022/06/29 04:01:46;;;;;;;8.15;6.13;;;18.20;99.90;;;;;;5003783;28;20121;-37
2022/06/29 04:04:13;;;;;;;8.65;6.18;;;18.10;99.90;;;;;;5006192;28;20112;-38
2022/06/29 04:06:39;;;;;;;8.60;6.50;;;18.10;99.90;;;;;;5007350;28;20042;-36
2022/06/29 04:09:05;;;;;;;16.23;7.28;;;18.00;99.90;;;;;;5007239;28;20065;-39
2022/06/29 04:11:49;;;;;;;9.48;6.82;;;18.00;99.90;;;;;;5007139;28;20049;-39
2022/06/29 04:14:21;;;;;;;9.98;7.07;;;18.00;99.90;;;;;;5011566;28;20114;-38
2022/06/29 04:16:47;;;;;;;8.60;6.00;;;18.00;99.90;;;;;;5005106;28;20033;-36
2022/06/29 04:19:13;;;;;;;8.90;6.65;;;18.00;99.90;;;;;;5009773;28;20602;-39
2022/06/29 04:21:39;;;;;;;7.72;5.50;;;18.10;99.90;;;;;;5005424;28;20041;-39
2022/06/29 04:24:05;;;;;;;9.18;7.10;;;18.10;99.90;;;;;;5005711;28;20034;-38
2022/06/29 04:26:30;;;;;;;8.05;6.63;;;18.20;99.90;;;;;;5006728;28;20079;-39
2022/06/29 04:28:56;;;;;;;8.48;6.25;;;18.20;99.90;;;;;;5007413;28;20036;-39
2022/06/29 04:31:22;;;;;;;8.45;7.35;;;18.30;99.90;;;;;;5006463;28;20034;-38
2022/06/29 04:33:47;;;;;;;8.05;6.70;;;18.30;99.90;;;;;;5007637;28;20037;-38
2022/06/29 04:36:13;;;;;;;9.35;6.82;;;18.30;99.90;;;;;;5008607;28;20042;-39
2022/06/29 04:38:38;;;;;;;8.48;6.80;;;18.20;99.90;;;;;;5009170;28;20030;-39
2022/06/29 04:41:04;;;;;;;9.00;6.90;;;18.20;99.90;;;;;;5005021;28;20296;-37
2022/06/29 04:43:30;;;;;;;9.10;7.05;;;18.20;99.90;;;;;;5008422;28;20022;-38
2022/06/29 04:48:41;;;;;;;11.18;6.80;;;18.30;99.90;;;;;;5006539;28;20414;-39
2022/06/29 04:51:06;;;;;;;8.98;6.28;;;18.40;99.90;;;;;;5003869;28;20021;-39
2022/06/29 04:53:32;;;;;;;10.95;7.20;;;18.40;99.90;;;;;;5009597;28;20470;-36
2022/06/29 04:55:58;;;;;;;8.18;6.28;;;18.50;99.90;;;;;;5008315;28;20064;-39
2022/06/29 04:58:23;;;;;;;10.68;6.80;;;18.50;99.90;;;;;;5008095;28;20038;-37
2022/06/29 05:00:49;;;;;;;8.52;6.60;;;18.50;99.90;;;;;;5004032;28;20056;-38
2022/06/29 05:03:14;;;;;;;9.50;6.72;;;18.60;99.90;;;;;;5010181;28;20026;-37
2022/06/29 05:05:40;;;;;;;8.93;6.18;;;18.60;99.90;;;;;;5006144;28;20045;-38
2022/06/29 05:08:06;;;;;;;8.82;6.80;;;18.60;99.90;;;;;;5005825;28;21065;-38
2022/06/29 05:10:31;;;;;;;7.47;6.18;;;18.60;99.90;;;;;;5010210;28;20034;-39
2022/06/29 05:12:57;;;;;;;7.25;6.55;;;18.60;99.90;;;;;;5005067;28;20109;-37
2022/06/29 05:15:23;;;;;;;7.15;6.32;;;18.60;99.90;;;;;;5007808;28;20037;-39
2022/06/29 05:17:49;;;;;;;8.48;6.53;;;18.70;99.90;;;;;;5008538;28;20030;-37
2022/06/29 05:20:15;;;;;;;7.07;6.00;;;18.60;99.90;;;;;;5010408;28;20069;-38
2022/06/29 05:22:41;;;;;;;7.80;6.05;;;18.60;99.90;;;;;;5022327;28;20095;-37
2022/06/29 05:25:07;;;;;;;9.73;6.60;;;18.60;99.90;;;;;;5007633;28;20061;-39
2022/06/29 05:27:33;;;;;;;7.97;5.90;;;18.70;99.90;;;;;;5005532;28;20073;-39
2022/06/29 05:29:59;;;;;;;8.73;6.53;;;18.70;99.90;;;;;;5009020;28;20068;-36
2022/06/29 05:32:25;;;;;;;9.13;6.18;;;18.70;99.90;;;;;;5006608;28;20066;-36
2022/06/29 05:34:50;;;;;;;9.48;6.78;;;18.60;99.90;;;;;;5004591;28;20034;-39
2022/06/29 05:37:16;;;;;;;7.88;6.28;;;18.60;99.90;;;;;;5008445;28;20509;-38
2022/06/29 05:39:45;;;;;;;7.82;5.90;;;18.60;99.90;;;;;;5008272;28;20041;-37
2022/06/29 05:42:14;;;;;;;8.57;6.82;;;18.60;99.90;;;;;;5001960;28;20500;-39
2022/06/29 05:44:41;;;;;;;7.78;6.85;;;18.60;99.90;;;;;;5006620;28;20030;-39
2022/06/29 05:47:07;;;;;;;9.57;7.38;;;18.60;99.90;;;;;;5007413;28;20028;-37
2022/06/29 05:49:34;;;;;;;8.82;7.22;;;18.60;99.90;;;;;;5007155;28;20061;-38
2022/06/29 05:52:00;;;;;;;8.77;6.45;;;18.60;99.90;;;;;;5001559;28;20092;-39
2022/06/29 05:54:26;;;;;;;8.15;6.57;;;18.60;99.90;;;;;;5008354;28;20483;-38
2022/06/29 05:56:51;;;;;;;9.50;6.60;;;18.60;99.90;;;;;;5004791;28;20091;-39
2022/06/29 05:59:17;;;;;;;9.30;6.88;;;18.70;99.90;;;;;;5007248;28;20029;-39
2022/06/29 06:01:42;;;;;;;8.13;6.90;;;18.70;99.90;;;;;;5005657;28;20128;-39
2022/06/29 06:04:08;;;;;;;8.18;6.40;;;18.70;99.90;;;;;;5013070;28;20108;-39
2022/06/29 06:06:34;;;;;;;7.95;7.15;;;18.60;99.90;;;;;;5007907;28;20073;-38
2022/06/29 06:09:00;;;;;;;8.50;6.80;;;18.50;99.90;;;;;;5008145;28;20509;-39
2022/06/29 06:11:26;;;;;;;9.18;6.57;;;18.50;99.90;;;;;;5006017;28;20531;-36
2022/06/29 06:13:52;;;;;;;10.23;7.00;;;18.50;99.90;;;;;;5006562;28;20057;-37
2022/06/29 06:16:17;;;;;;;7.45;6.03;;;18.40;99.90;;;;;;5007934;28;20402;-39
2022/06/29 06:18:43;;;;;;;8.30;6.45;;;18.50;99.90;;;;;;5008669;28;20022;-39
2022/06/29 06:21:08;;;;;;;9.43;6.75;;;18.60;99.90;;;;;;5006836;28;20387;-39
2022/06/29 06:23:34;;;;;;;7.80;6.82;;;18.60;99.90;;;;;;5007166;28;20034;-38
2022/06/29 06:26:00;;;;;;;11.98;7.63;;;18.70;99.90;;;;;;5006144;28;20101;-39
2022/06/29 06:28:25;;;;;;;11.10;7.80;;;18.70;99.90;;;;;;5006086;28;20410;-37
2022/06/29 06:30:51;;;;;;;10.07;7.50;;;18.70;99.90;;;;;;5006153;28;20042;-38
2022/06/29 06:33:16;;;;;;;8.88;6.85;;;18.70;99.90;;;;;;5005041;28;20061;-36
2022/06/29 06:35:42;;;;;;;10.40;7.80;;;18.70;99.90;;;;;;5006556;28;20029;-39
2022/06/29 06:38:07;;;;;;;9.25;7.15;;;18.70;99.90;;;;;;5006930;28;20022;-38
2022/06/29 06:43:17;;;;;;;8.60;7.28;;;18.80;99.90;;;;;;5003562;28;20080;-38
2022/06/29 06:45:42;;;;;;;12.75;8.00;;;18.80;99.90;;;;;;5009276;28;20038;-39
2022/06/29 06:48:08;;;;;;;11.02;8.00;;;18.90;99.90;;;;;;5008209;28;20040;-39
2022/06/29 06:50:34;;;;;;;10.90;7.10;;;18.90;99.90;;;;;;5007616;28;20030;-39
2022/06/29 06:53:01;;;;;;;11.38;7.97;;;18.90;99.90;;;;;;5007852;28;20283;-38
2022/06/29 06:55:27;;;;;;;8.90;7.65;;;19.00;99.90;;;;;;5007806;28;20487;-37
2022/06/29 06:57:53;;;;;;;10.45;7.45;;;19.10;99.90;;;;;;5007954;28;20064;-39
2022/06/29 07:00:19;;;;;;;9.48;7.80;;;19.10;99.90;;;;;;5006354;28;20030;-35
2022/06/29 07:02:44;;;;;;;12.35;7.75;;;19.00;99.90;;;;;;5005777;28;20066;-38
2022/06/29 07:05:10;;;;;;;12.30;8.10;;;19.00;99.90;;;;;;5006932;28;20058;-37
2022/06/29 07:07:36;;;;;;;11.48;8.25;;;19.00;99.90;;;;;;5007469;28;20057;-35
2022/06/29 07:10:01;;;;;;;16.05;8.25;;;18.90;99.90;;;;;;5008563;28;20113;-36
2022/06/29 07:12:27;;;;;;;11.20;8.25;;;18.90;99.90;;;;;;5003436;28;20030;-35
2022/06/29 07:14:52;;;;;;;10.60;8.07;;;19.00;99.90;;;;;;5008015;28;20041;-38
2022/06/29 07:17:18;;;;;;;12.05;8.82;;;19.10;99.90;;;;;;5006231;28;20025;-39
2022/06/29 07:19:43;;;;;;;12.02;8.25;;;19.10;99.90;;;;;;5007472;28;20116;-38
2022/06/29 07:22:09;;;;;;;11.82;8.85;;;19.30;99.90;;;;;;5007280;28;20565;-36
2022/06/29 07:24:35;;;;;;;12.32;8.10;;;19.40;99.90;;;;;;5008211;28;20069;-39
2022/06/29 07:27:00;;;;;;;10.45;7.88;;;19.40;99.90;;;;;;5008021;28;20052;-35
2022/06/29 07:29:26;;;;;;;11.30;8.55;;;19.40;99.90;;;;;;5005083;28;20022;-36
2022/06/29 07:31:52;;;;;;;9.20;7.40;;;19.40;99.90;;;;;;5005795;28;20073;-39
2022/06/29 07:34:17;;;;;;;9.52;7.57;;;19.50;99.90;;;;;;5007387;28;20033;-38
2022/06/29 07:36:43;;;;;;;11.15;8.43;;;19.50;99.90;;;;;;5003951;28;20112;-39
2022/06/29 07:39:09;;;;;;;14.35;8.85;;;19.50;99.90;;;;;;5007444;28;20351;-37
2022/06/29 07:41:36;;;;;;;12.80;7.93;;;19.50;99.90;;;;;;5007639;28;20101;-37
2022/06/29 07:44:03;;;;;;;10.38;7.70;;;19.40;99.90;;;;;;5004658;28;20497;-38
2022/06/29 07:46:29;;;;;;;12.35;8.10;;;19.30;99.90;;;;;;5005588;28;20037;-39
2022/06/29 07:48:55;;;;;;;10.68;8.57;;;19.20;99.90;;;;;;5007058;28;20038;-39
2022/06/29 07:51:20;;;;;;;9.73;7.32;;;19.20;99.90;;;;;;5007160;28;20029;-39
2022/06/29 07:53:46;;;;;;;10.15;7.65;;;19.20;99.90;;;;;;5006760;28;20682;-39
2022/06/29 07:56:12;;;;;;;10.35;7.97;;;19.30;99.90;;;;;;5006993;28;20046;-39
2022/06/29 07:58:37;;;;;;;10.50;7.53;;;19.30;99.90;;;;;;5006381;28;20391;-38
2022/06/29 08:01:03;;;;;;;10.02;7.55;;;19.30;99.90;;;;;;5006718;28;20360;-37
2022/06/29 08:03:31;;;;;;;11.93;7.47;;;19.40;99.90;;;;;;5007022;28;20038;-38
2022/06/29 08:05:57;;;;;;;10.00;7.07;;;19.30;99.90;;;;;;5006685;28;20494;-36
2022/06/29 08:08:23;;;;;;;12.65;8.50;;;19.30;99.90;;;;;;5005761;28;20775;-39
2022/06/29 08:10:49;;;;;;;10.77;8.48;;;19.30;99.90;;;;;;5005465;28;20037;-39
2022/06/29 08:13:14;;;;;;;10.80;7.82;;;19.40;99.90;;;;;;5006901;28;20033;-37
2022/06/29 08:15:42;;;;;;;10.77;7.50;;;19.40;99.90;;;;;;5009815;28;20018;-37
2022/06/29 08:18:07;;;;;;;10.05;7.15;;;19.50;99.90;;;;;;5009806;28;20030;-38
2022/06/29 08:20:33;;;;;;;9.57;7.28;;;19.50;99.90;;;;;;5011502;28;20076;-39
2022/06/29 08:22:59;;;;;;;11.05;7.40;;;19.50;99.90;;;;;;5009452;28;20052;-38
2022/06/29 08:25:24;;;;;;;11.68;7.43;;;19.70;99.90;;;;;;5006750;28;20037;-38
2022/06/29 08:27:55;;;;;;;11.20;7.45;;;19.60;99.90;;;;;;5010764;28;20033;-39
2022/06/29 08:30:20;;;;;;;8.95;7.70;;;19.60;99.90;;;;;;5007824;28;20037;-36
2022/06/29 08:32:47;;;;;;;11.25;7.57;;;19.70;99.90;;;;;;5008333;28;20032;-37
2022/06/29 08:35:14;;;;;;;10.80;8.43;;;19.70;99.90;;;;;;5008789;28;20391;-36
2022/06/29 08:37:40;;;;;;;10.30;7.85;;;19.70;99.90;;;;;;5005618;28;20096;-39
2022/06/29 08:40:08;;;;;;;10.57;7.25;;;19.80;99.90;;;;;;5010651;28;20446;-39
2022/06/29 08:42:36;;;;;;;11.02;8.70;;;19.90;99.90;;;;;;5007435;28;20061;-39
2022/06/29 08:45:04;;;;;;;12.18;7.85;;;19.90;99.90;;;;;;5010452;28;20080;-39
2022/06/29 08:47:29;;;;;;;10.75;8.60;;;19.80;99.90;;;;;;5010742;28;20382;-39
2022/06/29 08:49:56;;;;;;;10.65;8.68;;;19.90;99.90;;;;;;5008826;28;20084;-38
2022/06/29 08:52:24;;;;;;;9.88;7.70;;;20.00;99.90;;;;;;5009762;28;20032;-38
2022/06/29 08:54:52;;;;;;;;;;;19.90;99.90;;;;;;5009295;28;20030;-37
2022/06/29 08:57:18;;;;;;;11.65;7.38;;;19.90;99.90;;;;;;5010267;28;19913;-39
2022/06/29 08:59:44;;;;;;;8.63;7.18;;;19.90;99.90;;;;;;5008427;28;20404;-39
2022/06/29 09:02:11;;;;;;;9.55;7.90;;;20.00;99.90;;;;;;5008451;28;20061;-37
2022/06/29 09:04:37;;;;;;;10.55;8.50;;;20.00;99.90;;;;;;5007350;28;20038;-37
2022/06/29 09:07:03;;;;;;;10.52;8.52;;;20.00;99.90;;;;;;5009151;28;20108;-39
2022/06/29 09:09:29;;;;;;;11.10;7.82;;;19.90;99.90;;;;;;5007625;28;20041;-38
2022/06/29 09:11:55;;;;;;;13.20;9.40;;;20.00;99.90;;;;;;5007582;28;20041;-38
2022/06/29 09:14:23;;;;;;;13.40;9.02;;;19.90;99.90;;;;;;5009056;28;20080;-39
2022/06/29 09:16:53;;;;;;;11.40;8.35;;;20.00;99.90;;;;;;5008608;28;20056;-39
2022/06/29 09:19:20;;;;;;;11.55;8.68;;;20.00;99.90;;;;;;5009451;28;20026;-39
2022/06/29 09:21:47;;;;;;;9.55;8.63;;;19.90;99.90;;;;;;5005576;28;20076;-39
2022/06/29 09:24:28;;;;;;;12.17;8.30;;;19.80;99.90;;;;;;5007323;28;20033;-38
2022/06/29 09:26:56;;;;;;;11.43;8.85;;;19.80;99.90;;;;;;5009853;28;20030;-39
2022/06/29 09:29:30;;;;;;;10.63;9.00;;;19.80;99.90;;;;;;5007983;28;20190;-36
2022/06/29 09:32:04;;;;;;;11.68;9.00;;;19.70;99.90;;;;;;5009146;28;20030;-38
2022/06/29 09:34:50;;;;;;;11.57;8.60;;;19.80;99.90;;;;;;5007519;28;20034;-39
2022/06/29 09:37:17;;;;;;;9.48;8.48;;;19.80;99.90;;;;;;5007259;28;20133;-39
2022/06/29 09:39:48;;;;;;;9.98;8.88;;;19.90;99.90;;;;;;5009477;28;20030;-37
2022/06/29 09:42:16;;;;;;;8.90;7.95;;;20.00;99.90;;;;;;5008897;28;20030;-38
2022/06/29 09:44:42;;;;;;;11.68;8.60;;;20.00;99.90;;;;;;5001706;28;20084;-38
2022/06/29 09:47:15;;;;;;;10.80;8.88;;;20.10;99.90;;;;;;5007421;28;20029;-38
2022/06/29 09:49:43;;;;;;;10.77;8.38;;;20.10;99.90;;;;;;5008371;28;20514;-37
2022/06/29 09:52:09;;;;;;;9.75;7.78;;;20.00;99.90;;;;;;5002389;28;20026;-37
2022/06/29 09:54:47;;;;;;;9.63;7.97;;;20.10;99.90;;;;;;5006743;28;20574;-39
2022/06/29 09:57:15;;;;;;;9.43;7.70;;;20.20;99.90;;;;;;5008894;28;20021;-39
2022/06/29 10:02:35;;;;;;;9.75;7.38;;;20.20;99.90;;;;;;5006951;28;20037;-39
2022/06/29 10:05:13;;;;;;;8.35;7.15;;;20.40;99.90;;;;;;5006741;28;20025;-37
2022/06/29 10:07:49;;;;;;;9.30;8.00;;;20.60;99.90;;;;;;5005168;28;20045;-39
2022/06/29 10:10:17;;;;;;;7.90;6.90;;;20.90;99.90;;;;;;5007979;28;20057;-36
2022/06/29 10:15:43;;;;;;;6.75;5.88;;;21.30;99.90;;;;;;5002857;28;20282;-38
2022/06/29 10:18:46;;;;;;;9.05;6.75;;;21.30;99.90;;;;;;5008100;28;20085;-38
2022/06/29 10:21:22;;;;;;;7.10;6.15;;;21.10;99.90;;;;;;5008283;28;20525;-39
2022/06/29 10:23:54;;;;;;;7.18;6.00;;;21.00;99.90;;;;;;5008165;28;20451;-38
2022/06/29 10:26:27;;;;;;;7.20;5.97;;;21.10;99.90;;;;;;4999780;28;20144;-39
2022/06/29 10:29:16;;;;;;;7.20;6.50;;;21.40;99.90;;;;;;5009356;28;20061;-38
2022/06/29 10:31:54;;;;;;;8.45;6.30;;;21.60;99.90;;;;;;5004873;28;20037;-39
2022/06/29 10:34:32;;;;;;;7.72;6.20;;;21.60;99.90;;;;;;5008129;28;20060;-36
2022/06/29 10:37:07;;;;;;;6.03;5.22;;;21.40;99.90;;;;;;5007635;28;20048;-38
2022/06/29 10:39:44;;;;;;;9.23;6.22;;;21.30;99.90;;;;;;5008724;28;20030;-39
2022/06/29 10:45:33;;;;;;;7.68;5.20;;;21.60;99.90;;;;;;5007931;28;20036;-39
2022/06/29 10:47:58;;;;;;;10.88;6.25;;;22.30;99.90;;;;;;5000469;28;20025;-39
2022/06/29 10:50:25;;;;;;;6.75;6.10;;;22.70;99.90;;;;;;5006589;28;20026;-39
2022/06/29 10:53:02;;;;;;;6.72;5.95;;;22.40;99.90;;;;;;5005574;28;20034;-36
2022/06/29 10:55:30;;;;;;;7.93;6.03;;;22.90;98.90;;;;;;5007704;28;20018;-39
2022/06/29 10:57:59;;;;;;;7.22;5.97;;;23.20;99.20;;;;;;5007842;28;20044;-38
2022/06/29 11:00:31;;;;;;;9.18;5.95;;;23.20;99.20;;;;;;5007778;28;20034;-37
2022/06/29 11:02:57;;;;;;;7.45;5.88;;;23.10;98.80;;;;;;5005423;28;20038;-36
2022/06/29 11:05:23;;;;;;;6.90;6.20;;;23.10;97.10;;;;;;5009145;28;20403;-38
2022/06/29 11:13:28;;;;;;;5.85;4.85;;;22.50;98.50;;;;;;5008338;28;20113;-35
2022/06/29 11:15:58;;;;;;;6.88;5.68;;;22.50;99.90;;;;;;5006222;28;20022;-38
2022/06/29 11:18:29;;;;;;;7.20;5.85;;;22.90;99.00;;;;;;5006895;28;20467;-37
2022/06/29 11:21:02;;;;;;;6.53;5.78;;;22.80;99.50;;;;;;5008085;28;20030;-36
2022/06/29 11:23:35;;;;;;;6.32;5.72;;;23.00;98.10;;;;;;5008271;28;20124;-38
2022/06/29 11:26:03;;;;;;;8.98;6.07;;;23.10;99.80;;;;;;5008803;28;20030;-39
2022/06/29 11:28:29;;;;;;;;;;;23.10;97.70;;;;;;5009554;28;20427;-37
2022/06/29 11:31:01;;;;;;;6.30;5.70;;;22.90;97.80;;;;;;5007585;28;19957;-39
2022/06/29 11:33:32;;;;;;;8.13;5.55;;;23.00;97.60;;;;;;5007094;28;20124;-38
2022/06/29 11:36:03;;;;;;;6.30;5.70;;;22.60;97.20;;;;;;5005324;28;20030;-36
2022/06/29 11:38:29;;;;;;;9.07;6.38;;;22.50;99.90;;;;;;5008198;28;20042;-37
2022/06/29 11:40:55;;;;;;;9.07;6.20;;;22.90;99.90;;;;;;5006392;28;20030;-38
2022/06/29 11:43:21;;;;;;;6.28;5.68;;;23.20;99.10;;;;;;5007927;28;20041;-38
2022/06/29 11:45:52;;;;;;;7.70;5.57;;;23.20;97.40;;;;;;5008253;28;20043;-36
2022/06/29 11:48:26;;;;;;;8.10;6.18;;;23.20;98.00;;;;;;5009565;28;20092;-36
2022/06/29 11:50:54;;;;;;;7.82;6.20;;;23.10;98.60;;;;;;5005506;28;20053;-38
2022/06/29 11:53:38;;;;;;;;;;;23.20;98.40;;;;;;5012985;28;20100;-37
2022/06/29 11:56:25;;;;;;;6.15;5.55;;;23.20;96.50;;;;;;5010473;28;19913;-39
2022/06/29 11:58:54;;;;;;;6.80;5.28;;;23.30;96.90;;;;;;5007968;28;20033;-37
2022/06/29 12:01:25;;;;;;;6.05;5.45;;;23.30;95.90;;;;;;5010056;28;20588;-38
2022/06/29 12:03:53;;;;;;;6.32;5.28;;;23.30;98.10;;;;;;5008931;28;20061;-38
2022/06/29 12:06:21;;;;;;;6.05;5.50;;;23.10;97.80;;;;;;5011432;28;20038;-37
2022/06/29 12:08:47;;;;;;;;;;;22.60;97.00;;;;;;5011650;28;20041;-37
2022/06/29 12:11:13;;;;;;;6.57;5.53;;;22.50;98.10;;;;;;5010171;28;20652;-38
2022/06/29 12:13:39;;;;;;;6.72;5.35;;;22.70;99.90;;;;;;5011160;28;20038;-36
2022/06/29 12:16:04;;;;;;;6.95;5.32;;;22.90;99.90;;;;;;5011841;28;20037;-39
2022/06/29 12:18:30;;;;;;;6.18;5.55;;;22.90;96.00;;;;;;5012080;28;20032;-39
2022/06/29 12:20:56;;;;;;;6.03;5.43;;;22.80;98.10;;;;;;5011261;28;20103;-38
2022/06/29 12:23:23;;;;;;;8.15;5.70;;;23.00;99.00;;;;;;5007648;28;20340;-38
2022/06/29 12:25:48;;;;;;;8.77;5.93;;;23.10;98.40;;;;;;5010179;28;20540;-37
2022/06/29 12:28:14;;;;;;;7.38;6.10;;;23.30;96.80;;;;;;5009381;28;20033;-37
2022/06/29 12:30:40;;;;;;;6.22;5.60;;;23.30;96.50;;;;;;5010458;28;20491;-38
2022/06/29 12:33:09;;;;;;;7.88;5.45;;;23.20;98.60;;;;;;5010359;28;20037;-39
2022/06/29 12:35:38;;;;;;;6.78;5.00;;;23.20;97.20;;;;;;5007426;28;20053;-37
2022/06/29 12:38:04;;;;;;;6.82;5.95;;;23.20;96.60;;;;;;5007077;28;20502;-35
2022/06/29 12:40:30;;;;;;;7.05;5.20;;;23.30;98.00;;;;;;5009498;28;20037;-38
2022/06/29 12:42:56;;;;;;;6.28;5.65;;;23.40;98.30;;;;;;5008866;28;20030;-38
2022/06/29 12:45:23;;;;;;;6.85;5.43;;;23.60;97.70;;;;;;5010712;28;20095;-36
2022/06/29 12:47:49;;;;;;;5.93;4.63;;;23.30;95.80;;;;;;5009364;28;20478;-39
2022/06/29 12:50:15;;;;;;;6.55;5.18;;;23.40;97.50;;;;;;5025072;28;20494;-38
2022/06/29 12:52:46;;;;;;;5.97;5.00;;;23.50;94.40;;;;;;5007967;28;20028;-38
2022/06/29 12:55:12;;;;;;;5.75;4.93;;;23.40;94.70;;;;;;5005115;28;20022;-35
2022/06/29 12:57:38;;;;;;;5.68;4.30;;;23.40;93.80;;;;;;5009267;28;20088;-38
2022/06/29 13:00:04;;;;;;;7.53;4.43;;;23.50;95.80;;;;;;5009767;28;20025;-37
2022/06/29 13:02:30;;;;;;;6.30;4.00;;;23.60;93.50;;;;;;5007432;28;20057;-39
2022/06/29 13:04:56;;;;;;;4.90;4.32;;;23.00;94.00;;;;;;5009899;28;20037;-38
2022/06/29 13:07:26;;;;;;;5.90;4.50;;;23.20;98.30;;;;;;5008813;28;20046;-38
2022/06/29 13:09:52;;;;;;;4.78;4.25;;;23.40;98.70;;;;;;5010284;28;20026;-37
2022/06/29 13:12:18;;;;;;;5.35;3.70;;;23.60;97.50;;;;;;5007590;28;20045;-38